sensor_id;sensor_type;location;lat;lon;timestamp;P1;durP1;ratioP1;P2;durP2;ratioP2
35114;SDS011;21292;52.416;13.046;2024-02-21T00:02:00;23.10;;;6.97;;
35114;SDS011;21292;52.416;13.046;2024-02-21T00:04:28;19.40;;;6.65;;
35114;SDS011;21292;52.416;13.046;2024-02-21T00:06:56;18.20;;;6.65;;
35114;SDS011;21292;52.416;13.046;2024-02-21T00:09:28;21.33;;;6.63;;
35114;SDS011;21292;52.416;13.046;2024-02-21T00:11:57;23.30;;;6.22;;
35114;SDS011;21292;52.416;13.046;2024-02-21T00:14:26;28.67;;;7.38;;
35114;SDS011;21292;52.416;13.046;2024-02-21T00:16:55;22.38;;;6.15;;
35114;SDS011;21292;52.416;13.046;2024-02-21T00:19:24;27.85;;;6.45;;
35114;SDS011;21292;52.416;13.046;2024-02-21T00:21:52;28.55;;;6.32;;
35114;SDS011;21292;52.416;13.046;2024-02-21T00:24:20;17.90;;;5.70;;
35114;SDS011;21292;52.416;13.046;2024-02-21T00:26:49;23.40;;;6.00;;
35114;SDS011;21292;52.416;13.046;2024-02-21T00:29:18;21.90;;;7.28;;
35114;SDS011;21292;52.416;13.046;2024-02-21T00:31:47;19.70;;;6.85;;
35114;SDS011;21292;52.416;13.046;2024-02-21T00:34:16;20.42;;;7.35;;
35114;SDS011;21292;52.416;13.046;2024-02-21T00:36:45;26.83;;;6.55;;
35114;SDS011;21292;52.416;13.046;2024-02-21T00:39:13;17.95;;;6.13;;
35114;SDS011;21292;52.416;13.046;2024-02-21T00:41:41;21.77;;;7.13;;
35114;SDS011;21292;52.416;13.046;2024-02-21T00:44:09;18.02;;;6.63;;
35114;SDS011;21292;52.416;13.046;2024-02-21T00:46:39;20.40;;;7.22;;
35114;SDS011;21292;52.416;13.046;2024-02-21T00:49:07;22.52;;;6.70;;
35114;SDS011;21292;52.416;13.046;2024-02-21T00:51:36;18.30;;;6.00;;
35114;SDS011;21292;52.416;13.046;2024-02-21T00:54:04;20.75;;;6.30;;
35114;SDS011;21292;52.416;13.046;2024-02-21T00:56:33;23.67;;;6.35;;
35114;SDS011;21292;52.416;13.046;2024-02-21T00:59:01;18.15;;;5.70;;
35114;SDS011;21292;52.416;13.046;2024-02-21T01:01:29;28.38;;;6.25;;
35114;SDS011;21292;52.416;13.046;2024-02-21T01:03:59;21.08;;;6.95;;
35114;SDS011;21292;52.416;13.046;2024-02-21T01:06:28;18.20;;;5.78;;
35114;SDS011;21292;52.416;13.046;2024-02-21T01:08:56;18.65;;;6.75;;
35114;SDS011;21292;52.416;13.046;2024-02-21T01:11:24;18.90;;;5.50;;
35114;SDS011;21292;52.416;13.046;2024-02-21T01:13:52;18.17;;;7.25;;
35114;SDS011;21292;52.416;13.046;2024-02-21T01:16:20;24.90;;;5.90;;
35114;SDS011;21292;52.416;13.046;2024-02-21T01:18:48;17.33;;;5.95;;
35114;SDS011;21292;52.416;13.046;2024-02-21T01:21:18;29.17;;;7.70;;
35114;SDS011;21292;52.416;13.046;2024-02-21T01:23:46;20.13;;;5.75;;
35114;SDS011;21292;52.416;13.046;2024-02-21T01:26:14;30.35;;;7.18;;
35114;SDS011;21292;52.416;13.046;2024-02-21T01:28:42;18.20;;;5.88;;
35114;SDS011;21292;52.416;13.046;2024-02-21T01:31:10;25.38;;;8.02;;
35114;SDS011;21292;52.416;13.046;2024-02-21T01:33:40;24.38;;;6.22;;
35114;SDS011;21292;52.416;13.046;2024-02-21T01:36:09;18.60;;;5.50;;
35114;SDS011;21292;52.416;13.046;2024-02-21T01:38:38;19.08;;;6.78;;
35114;SDS011;21292;52.416;13.046;2024-02-21T01:41:07;25.45;;;7.13;;
35114;SDS011;21292;52.416;13.046;2024-02-21T01:43:35;18.17;;;4.93;;
35114;SDS011;21292;52.416;13.046;2024-02-21T01:46:03;21.48;;;6.20;;
35114;SDS011;21292;52.416;13.046;2024-02-21T01:48:31;19.55;;;6.40;;
35114;SDS011;21292;52.416;13.046;2024-02-21T01:51:00;13.77;;;5.35;;
35114;SDS011;21292;52.416;13.046;2024-02-21T01:53:30;20.67;;;6.47;;
35114;SDS011;21292;52.416;13.046;2024-02-21T01:56:00;17.83;;;5.43;;
35114;SDS011;21292;52.416;13.046;2024-02-21T01:58:29;14.23;;;5.38;;
35114;SDS011;21292;52.416;13.046;2024-02-21T02:00:58;21.77;;;5.25;;
35114;SDS011;21292;52.416;13.046;2024-02-21T02:03:27;16.17;;;6.43;;
35114;SDS011;21292;52.416;13.046;2024-02-21T02:05:56;20.75;;;7.40;;
35114;SDS011;21292;52.416;13.046;2024-02-21T02:08:24;25.40;;;6.28;;
35114;SDS011;21292;52.416;13.046;2024-02-21T02:10:53;19.70;;;5.63;;
35114;SDS011;21292;52.416;13.046;2024-02-21T02:13:23;20.23;;;5.78;;
35114;SDS011;21292;52.416;13.046;2024-02-21T02:15:51;19.92;;;5.97;;
35114;SDS011;21292;52.416;13.046;2024-02-21T02:18:19;17.38;;;5.95;;
35114;SDS011;21292;52.416;13.046;2024-02-21T02:20:48;16.73;;;5.53;;
35114;SDS011;21292;52.416;13.046;2024-02-21T02:23:20;20.17;;;6.07;;
35114;SDS011;21292;52.416;13.046;2024-02-21T02:25:50;19.90;;;5.97;;
35114;SDS011;21292;52.416;13.046;2024-02-21T02:28:19;26.85;;;6.63;;
35114;SDS011;21292;52.416;13.046;2024-02-21T02:30:48;24.27;;;6.45;;
35114;SDS011;21292;52.416;13.046;2024-02-21T02:33:18;24.23;;;6.88;;
35114;SDS011;21292;52.416;13.046;2024-02-21T02:35:46;37.47;;;7.85;;
35114;SDS011;21292;52.416;13.046;2024-02-21T02:38:15;18.63;;;6.93;;
35114;SDS011;21292;52.416;13.046;2024-02-21T02:40:45;27.77;;;7.65;;
35114;SDS011;21292;52.416;13.046;2024-02-21T02:43:13;16.75;;;6.53;;
35114;SDS011;21292;52.416;13.046;2024-02-21T02:45:41;29.30;;;8.20;;
35114;SDS011;21292;52.416;13.046;2024-02-21T02:48:09;25.95;;;7.22;;
35114;SDS011;21292;52.416;13.046;2024-02-21T02:50:38;24.35;;;7.95;;
35114;SDS011;21292;52.416;13.046;2024-02-21T02:53:06;24.67;;;7.30;;
35114;SDS011;21292;52.416;13.046;2024-02-21T02:55:35;32.60;;;7.35;;
35114;SDS011;21292;52.416;13.046;2024-02-21T02:58:04;17.50;;;6.55;;
35114;SDS011;21292;52.416;13.046;2024-02-21T03:00:32;26.10;;;7.53;;
35114;SDS011;21292;52.416;13.046;2024-02-21T03:03:03;28.02;;;8.35;;
35114;SDS011;21292;52.416;13.046;2024-02-21T03:05:31;40.30;;;9.43;;
35114;SDS011;21292;52.416;13.046;2024-02-21T03:08:00;19.67;;;9.52;;
35114;SDS011;21292;52.416;13.046;2024-02-21T03:10:28;35.78;;;8.98;;
35114;SDS011;21292;52.416;13.046;2024-02-21T03:12:56;23.55;;;7.63;;
35114;SDS011;21292;52.416;13.046;2024-02-21T03:15:27;29.05;;;8.18;;
35114;SDS011;21292;52.416;13.046;2024-02-21T03:17:55;31.85;;;9.27;;
35114;SDS011;21292;52.416;13.046;2024-02-21T03:20:23;31.85;;;8.57;;
35114;SDS011;21292;52.416;13.046;2024-02-21T03:22:51;39.80;;;9.27;;
35114;SDS011;21292;52.416;13.046;2024-02-21T03:25:19;25.60;;;9.40;;
35114;SDS011;21292;52.416;13.046;2024-02-21T03:27:48;32.08;;;10.30;;
35114;SDS011;21292;52.416;13.046;2024-02-21T03:30:16;41.67;;;8.93;;
35114;SDS011;21292;52.416;13.046;2024-02-21T03:32:46;39.75;;;10.18;;
35114;SDS011;21292;52.416;13.046;2024-02-21T03:35:14;37.28;;;11.27;;
35114;SDS011;21292;52.416;13.046;2024-02-21T03:37:44;33.25;;;9.52;;
35114;SDS011;21292;52.416;13.046;2024-02-21T03:40:13;29.25;;;9.55;;
35114;SDS011;21292;52.416;13.046;2024-02-21T03:42:41;29.30;;;9.13;;
35114;SDS011;21292;52.416;13.046;2024-02-21T03:45:09;33.55;;;10.20;;
35114;SDS011;21292;52.416;13.046;2024-02-21T03:47:37;36.78;;;9.90;;
35114;SDS011;21292;52.416;13.046;2024-02-21T03:50:07;31.98;;;9.88;;
35114;SDS011;21292;52.416;13.046;2024-02-21T03:52:36;36.08;;;11.82;;
35114;SDS011;21292;52.416;13.046;2024-02-21T03:55:04;34.42;;;10.65;;
35114;SDS011;21292;52.416;13.046;2024-02-21T03:57:35;35.50;;;10.77;;
35114;SDS011;21292;52.416;13.046;2024-02-21T04:00:04;29.98;;;9.43;;
35114;SDS011;21292;52.416;13.046;2024-02-21T04:02:38;28.42;;;10.13;;
35114;SDS011;21292;52.416;13.046;2024-02-21T04:05:08;28.17;;;10.68;;
35114;SDS011;21292;52.416;13.046;2024-02-21T04:07:39;39.38;;;10.98;;
35114;SDS011;21292;52.416;13.046;2024-02-21T04:10:08;35.05;;;10.57;;
35114;SDS011;21292;52.416;13.046;2024-02-21T04:12:36;35.30;;;10.63;;
35114;SDS011;21292;52.416;13.046;2024-02-21T04:15:05;34.30;;;10.63;;
35114;SDS011;21292;52.416;13.046;2024-02-21T04:17:34;34.85;;;10.27;;
35114;SDS011;21292;52.416;13.046;2024-02-21T04:20:03;38.58;;;10.80;;
35114;SDS011;21292;52.416;13.046;2024-02-21T04:22:36;35.55;;;11.30;;
35114;SDS011;21292;52.416;13.046;2024-02-21T04:25:04;49.83;;;10.23;;
35114;SDS011;21292;52.416;13.046;2024-02-21T04:27:33;31.92;;;10.48;;
35114;SDS011;21292;52.416;13.046;2024-02-21T04:30:02;46.40;;;11.77;;
35114;SDS011;21292;52.416;13.046;2024-02-21T04:32:31;32.13;;;10.68;;
35114;SDS011;21292;52.416;13.046;2024-02-21T04:34:59;40.25;;;12.02;;
35114;SDS011;21292;52.416;13.046;2024-02-21T04:37:28;35.72;;;11.30;;
35114;SDS011;21292;52.416;13.046;2024-02-21T04:39:59;29.40;;;11.00;;
35114;SDS011;21292;52.416;13.046;2024-02-21T04:42:27;35.10;;;11.00;;
35114;SDS011;21292;52.416;13.046;2024-02-21T04:44:56;33.63;;;10.00;;
35114;SDS011;21292;52.416;13.046;2024-02-21T04:47:24;46.17;;;10.95;;
35114;SDS011;21292;52.416;13.046;2024-02-21T04:49:53;38.25;;;10.25;;
35114;SDS011;21292;52.416;13.046;2024-02-21T04:52:22;31.63;;;11.07;;
35114;SDS011;21292;52.416;13.046;2024-02-21T04:54:50;36.95;;;12.82;;
35114;SDS011;21292;52.416;13.046;2024-02-21T04:57:20;37.42;;;11.48;;
35114;SDS011;21292;52.416;13.046;2024-02-21T04:59:48;31.95;;;12.07;;
35114;SDS011;21292;52.416;13.046;2024-02-21T05:02:16;42.65;;;11.43;;
35114;SDS011;21292;52.416;13.046;2024-02-21T05:04:46;38.63;;;11.98;;
35114;SDS011;21292;52.416;13.046;2024-02-21T05:07:15;35.70;;;12.40;;
35114;SDS011;21292;52.416;13.046;2024-02-21T05:09:43;48.30;;;12.52;;
35114;SDS011;21292;52.416;13.046;2024-02-21T05:12:11;40.15;;;11.93;;
35114;SDS011;21292;52.416;13.046;2024-02-21T05:14:41;34.85;;;11.40;;
35114;SDS011;21292;52.416;13.046;2024-02-21T05:17:09;41.58;;;12.75;;
35114;SDS011;21292;52.416;13.046;2024-02-21T05:19:38;49.45;;;12.57;;
35114;SDS011;21292;52.416;13.046;2024-02-21T05:22:06;32.90;;;12.85;;
35114;SDS011;21292;52.416;13.046;2024-02-21T05:24:34;39.58;;;12.70;;
35114;SDS011;21292;52.416;13.046;2024-02-21T05:27:03;46.15;;;13.23;;
35114;SDS011;21292;52.416;13.046;2024-02-21T05:29:32;45.72;;;12.07;;
35114;SDS011;21292;52.416;13.046;2024-02-21T05:32:02;38.58;;;12.15;;
35114;SDS011;21292;52.416;13.046;2024-02-21T05:34:31;35.40;;;13.07;;
35114;SDS011;21292;52.416;13.046;2024-02-21T05:36:59;42.83;;;13.10;;
35114;SDS011;21292;52.416;13.046;2024-02-21T05:39:27;42.70;;;14.60;;
35114;SDS011;21292;52.416;13.046;2024-02-21T05:41:56;39.83;;;13.52;;
35114;SDS011;21292;52.416;13.046;2024-02-21T05:44:25;47.33;;;17.13;;
35114;SDS011;21292;52.416;13.046;2024-02-21T05:46:54;42.03;;;14.68;;
35114;SDS011;21292;52.416;13.046;2024-02-21T05:49:23;52.22;;;14.60;;
35114;SDS011;21292;52.416;13.046;2024-02-21T05:51:52;29.85;;;13.27;;
35114;SDS011;21292;52.416;13.046;2024-02-21T05:54:20;48.45;;;15.13;;
35114;SDS011;21292;52.416;13.046;2024-02-21T05:56:48;44.83;;;15.07;;
35114;SDS011;21292;52.416;13.046;2024-02-21T05:59:16;55.08;;;16.48;;
35114;SDS011;21292;52.416;13.046;2024-02-21T06:01:44;46.47;;;15.85;;
35114;SDS011;21292;52.416;13.046;2024-02-21T06:04:13;51.67;;;14.68;;
35114;SDS011;21292;52.416;13.046;2024-02-21T06:06:43;51.13;;;15.90;;
35114;SDS011;21292;52.416;13.046;2024-02-21T06:09:11;62.08;;;15.43;;
35114;SDS011;21292;52.416;13.046;2024-02-21T06:11:39;57.97;;;17.20;;
35114;SDS011;21292;52.416;13.046;2024-02-21T06:14:12;48.83;;;15.18;;
35114;SDS011;21292;52.416;13.046;2024-02-21T06:16:40;51.58;;;16.80;;
35114;SDS011;21292;52.416;13.046;2024-02-21T06:19:08;44.08;;;16.10;;
35114;SDS011;21292;52.416;13.046;2024-02-21T06:21:36;52.33;;;15.88;;
35114;SDS011;21292;52.416;13.046;2024-02-21T06:24:06;40.88;;;15.43;;
35114;SDS011;21292;52.416;13.046;2024-02-21T06:26:34;44.25;;;15.43;;
35114;SDS011;21292;52.416;13.046;2024-02-21T06:29:02;46.03;;;16.05;;
35114;SDS011;21292;52.416;13.046;2024-02-21T06:31:30;58.72;;;17.65;;
35114;SDS011;21292;52.416;13.046;2024-02-21T06:33:59;47.45;;;15.48;;
35114;SDS011;21292;52.416;13.046;2024-02-21T06:36:28;42.97;;;15.80;;
35114;SDS011;21292;52.416;13.046;2024-02-21T06:38:58;51.30;;;15.88;;
35114;SDS011;21292;52.416;13.046;2024-02-21T06:41:32;60.20;;;17.13;;
35114;SDS011;21292;52.416;13.046;2024-02-21T06:44:01;45.55;;;15.35;;
35114;SDS011;21292;52.416;13.046;2024-02-21T06:46:30;56.70;;;14.63;;
35114;SDS011;21292;52.416;13.046;2024-02-21T06:49:00;50.42;;;16.70;;
35114;SDS011;21292;52.416;13.046;2024-02-21T06:51:29;46.28;;;14.98;;
35114;SDS011;21292;52.416;13.046;2024-02-21T06:53:57;50.08;;;15.50;;
35114;SDS011;21292;52.416;13.046;2024-02-21T06:56:27;51.13;;;14.68;;
35114;SDS011;21292;52.416;13.046;2024-02-21T06:58:57;35.13;;;13.95;;
35114;SDS011;21292;52.416;13.046;2024-02-21T07:01:26;44.97;;;15.38;;
35114;SDS011;21292;52.416;13.046;2024-02-21T07:03:54;40.95;;;14.00;;
35114;SDS011;21292;52.416;13.046;2024-02-21T07:06:23;38.40;;;13.98;;
35114;SDS011;21292;52.416;13.046;2024-02-21T07:08:52;41.65;;;15.15;;
35114;SDS011;21292;52.416;13.046;2024-02-21T07:11:20;50.60;;;13.00;;
35114;SDS011;21292;52.416;13.046;2024-02-21T07:13:49;39.80;;;12.90;;
35114;SDS011;21292;52.416;13.046;2024-02-21T07:16:21;43.65;;;13.35;;
35114;SDS011;21292;52.416;13.046;2024-02-21T07:18:51;37.60;;;13.75;;
35114;SDS011;21292;52.416;13.046;2024-02-21T07:21:25;40.22;;;12.07;;
35114;SDS011;21292;52.416;13.046;2024-02-21T07:23:57;39.85;;;12.73;;
35114;SDS011;21292;52.416;13.046;2024-02-21T07:26:26;43.08;;;12.85;;
35114;SDS011;21292;52.416;13.046;2024-02-21T07:28:54;36.80;;;11.52;;
35114;SDS011;21292;52.416;13.046;2024-02-21T07:31:30;33.92;;;11.68;;
35114;SDS011;21292;52.416;13.046;2024-02-21T07:33:58;35.97;;;10.57;;
35114;SDS011;21292;52.416;13.046;2024-02-21T07:36:38;23.25;;;10.48;;
35114;SDS011;21292;52.416;13.046;2024-02-21T07:39:07;26.20;;;10.57;;
35114;SDS011;21292;52.416;13.046;2024-02-21T07:41:35;30.10;;;10.40;;
35114;SDS011;21292;52.416;13.046;2024-02-21T07:44:05;32.63;;;11.23;;
35114;SDS011;21292;52.416;13.046;2024-02-21T07:46:35;29.77;;;11.65;;
35114;SDS011;21292;52.416;13.046;2024-02-21T07:49:03;28.67;;;10.80;;
35114;SDS011;21292;52.416;13.046;2024-02-21T07:51:31;26.35;;;10.38;;
35114;SDS011;21292;52.416;13.046;2024-02-21T07:54:00;26.10;;;10.10;;
35114;SDS011;21292;52.416;13.046;2024-02-21T07:56:31;27.70;;;10.70;;
35114;SDS011;21292;52.416;13.046;2024-02-21T07:58:59;27.42;;;11.32;;
35114;SDS011;21292;52.416;13.046;2024-02-21T08:01:27;29.92;;;10.38;;
35114;SDS011;21292;52.416;13.046;2024-02-21T08:03:57;22.52;;;10.10;;
35114;SDS011;21292;52.416;13.046;2024-02-21T08:06:26;31.27;;;10.43;;
35114;SDS011;21292;52.416;13.046;2024-02-21T08:08:54;21.75;;;9.32;;
35114;SDS011;21292;52.416;13.046;2024-02-21T08:11:24;30.15;;;11.43;;
35114;SDS011;21292;52.416;13.046;2024-02-21T08:13:52;28.58;;;11.35;;
35114;SDS011;21292;52.416;13.046;2024-02-21T08:16:20;23.58;;;10.40;;
35114;SDS011;21292;52.416;13.046;2024-02-21T08:18:49;21.73;;;10.45;;
35114;SDS011;21292;52.416;13.046;2024-02-21T08:21:20;23.98;;;9.75;;
35114;SDS011;21292;52.416;13.046;2024-02-21T08:23:49;24.38;;;8.98;;
35114;SDS011;21292;52.416;13.046;2024-02-21T08:26:19;29.33;;;10.20;;
35114;SDS011;21292;52.416;13.046;2024-02-21T08:28:48;19.63;;;9.07;;
35114;SDS011;21292;52.416;13.046;2024-02-21T08:31:20;26.58;;;10.45;;
35114;SDS011;21292;52.416;13.046;2024-02-21T08:33:50;24.02;;;9.52;;
35114;SDS011;21292;52.416;13.046;2024-02-21T08:36:19;32.88;;;9.93;;
35114;SDS011;21292;52.416;13.046;2024-02-21T08:38:47;38.10;;;11.38;;
35114;SDS011;21292;52.416;13.046;2024-02-21T08:41:16;24.75;;;11.38;;
35114;SDS011;21292;52.416;13.046;2024-02-21T08:43:44;26.40;;;11.48;;
35114;SDS011;21292;52.416;13.046;2024-02-21T08:46:12;27.60;;;10.00;;
35114;SDS011;21292;52.416;13.046;2024-02-21T08:48:42;20.98;;;10.18;;
35114;SDS011;21292;52.416;13.046;2024-02-21T08:51:15;27.80;;;10.23;;
35114;SDS011;21292;52.416;13.046;2024-02-21T08:53:45;22.55;;;10.32;;
35114;SDS011;21292;52.416;13.046;2024-02-21T08:56:13;28.23;;;11.88;;
35114;SDS011;21292;52.416;13.046;2024-02-21T08:58:42;22.00;;;10.48;;
35114;SDS011;21292;52.416;13.046;2024-02-21T09:01:10;31.50;;;11.63;;
35114;SDS011;21292;52.416;13.046;2024-02-21T09:03:38;26.42;;;10.75;;
35114;SDS011;21292;52.416;13.046;2024-02-21T09:06:10;18.80;;;11.38;;
35114;SDS011;21292;52.416;13.046;2024-02-21T09:08:41;25.98;;;12.38;;
35114;SDS011;21292;52.416;13.046;2024-02-21T09:11:16;28.30;;;11.65;;
35114;SDS011;21292;52.416;13.046;2024-02-21T09:13:44;30.73;;;13.25;;
35114;SDS011;21292;52.416;13.046;2024-02-21T09:16:12;24.60;;;11.38;;
35114;SDS011;21292;52.416;13.046;2024-02-21T09:18:40;21.85;;;11.30;;
35114;SDS011;21292;52.416;13.046;2024-02-21T09:21:09;23.33;;;11.30;;
35114;SDS011;21292;52.416;13.046;2024-02-21T09:23:37;24.10;;;11.38;;
35114;SDS011;21292;52.416;13.046;2024-02-21T09:26:05;27.27;;;11.25;;
35114;SDS011;21292;52.416;13.046;2024-02-21T09:28:38;24.17;;;10.13;;
35114;SDS011;21292;52.416;13.046;2024-02-21T09:31:06;26.30;;;11.88;;
35114;SDS011;21292;52.416;13.046;2024-02-21T09:33:35;24.98;;;10.70;;
35114;SDS011;21292;52.416;13.046;2024-02-21T09:36:04;23.05;;;11.38;;
35114;SDS011;21292;52.416;13.046;2024-02-21T09:38:33;21.73;;;11.30;;
35114;SDS011;21292;52.416;13.046;2024-02-21T09:41:04;23.63;;;11.95;;
35114;SDS011;21292;52.416;13.046;2024-02-21T09:43:39;23.23;;;12.05;;
35114;SDS011;21292;52.416;13.046;2024-02-21T09:46:13;25.02;;;10.38;;
35114;SDS011;21292;52.416;13.046;2024-02-21T09:51:15;21.60;;;10.20;;
35114;SDS011;21292;52.416;13.046;2024-02-21T09:53:44;20.23;;;10.52;;
35114;SDS011;21292;52.416;13.046;2024-02-21T09:56:28;21.10;;;10.68;;
35114;SDS011;21292;52.416;13.046;2024-02-21T09:58:58;24.67;;;10.25;;
35114;SDS011;21292;52.416;13.046;2024-02-21T10:01:26;30.77;;;11.38;;
35114;SDS011;21292;52.416;13.046;2024-02-21T10:04:01;23.88;;;10.95;;
35114;SDS011;21292;52.416;13.046;2024-02-21T10:06:30;19.77;;;10.27;;
35114;SDS011;21292;52.416;13.046;2024-02-21T10:08:59;20.83;;;9.50;;
35114;SDS011;21292;52.416;13.046;2024-02-21T10:11:27;20.20;;;9.98;;
35114;SDS011;21292;52.416;13.046;2024-02-21T10:14:03;20.42;;;9.52;;
35114;SDS011;21292;52.416;13.046;2024-02-21T10:16:33;30.85;;;10.95;;
35114;SDS011;21292;52.416;13.046;2024-02-21T10:19:02;20.27;;;10.40;;
35114;SDS011;21292;52.416;13.046;2024-02-21T10:21:32;18.77;;;9.77;;
35114;SDS011;21292;52.416;13.046;2024-02-21T10:24:02;20.27;;;10.10;;
35114;SDS011;21292;52.416;13.046;2024-02-21T10:26:31;23.60;;;11.00;;
35114;SDS011;21292;52.416;13.046;2024-02-21T10:29:02;18.33;;;9.23;;
35114;SDS011;21292;52.416;13.046;2024-02-21T10:31:32;19.30;;;9.68;;
35114;SDS011;21292;52.416;13.046;2024-02-21T10:34:01;19.67;;;10.07;;
35114;SDS011;21292;52.416;13.046;2024-02-21T10:36:32;19.10;;;10.10;;
35114;SDS011;21292;52.416;13.046;2024-02-21T10:39:03;22.40;;;10.00;;
35114;SDS011;21292;52.416;13.046;2024-02-21T10:41:31;19.10;;;10.88;;
35114;SDS011;21292;52.416;13.046;2024-02-21T10:44:01;20.05;;;10.15;;
35114;SDS011;21292;52.416;13.046;2024-02-21T10:46:34;24.05;;;10.90;;
35114;SDS011;21292;52.416;13.046;2024-02-21T10:49:08;19.85;;;10.00;;
35114;SDS011;21292;52.416;13.046;2024-02-21T10:54:13;15.27;;;9.02;;
35114;SDS011;21292;52.416;13.046;2024-02-21T10:56:48;20.48;;;9.80;;
35114;SDS011;21292;52.416;13.046;2024-02-21T10:59:21;19.50;;;9.48;;
35114;SDS011;21292;52.416;13.046;2024-02-21T11:01:53;23.45;;;9.68;;
35114;SDS011;21292;52.416;13.046;2024-02-21T11:04:25;24.63;;;9.88;;
35114;SDS011;21292;52.416;13.046;2024-02-21T11:06:55;17.15;;;8.88;;
35114;SDS011;21292;52.416;13.046;2024-02-21T11:09:29;18.95;;;9.63;;
35114;SDS011;21292;52.416;13.046;2024-02-21T11:12:02;14.32;;;8.60;;
35114;SDS011;21292;52.416;13.046;2024-02-21T11:14:33;20.13;;;9.25;;
35114;SDS011;21292;52.416;13.046;2024-02-21T11:17:14;16.52;;;8.45;;
35114;SDS011;21292;52.416;13.046;2024-02-21T11:19:42;15.68;;;8.77;;
35114;SDS011;21292;52.416;13.046;2024-02-21T11:22:14;17.67;;;8.40;;
35114;SDS011;21292;52.416;13.046;2024-02-21T11:24:43;24.98;;;8.68;;
35114;SDS011;21292;52.416;13.046;2024-02-21T11:27:12;21.88;;;7.35;;
35114;SDS011;21292;52.416;13.046;2024-02-21T11:29:46;18.23;;;7.93;;
35114;SDS011;21292;52.416;13.046;2024-02-21T11:32:16;13.27;;;6.78;;
35114;SDS011;21292;52.416;13.046;2024-02-21T11:34:55;15.38;;;7.05;;
35114;SDS011;21292;52.416;13.046;2024-02-21T11:37:24;15.18;;;7.47;;
35114;SDS011;21292;52.416;13.046;2024-02-21T11:39:55;16.55;;;7.65;;
35114;SDS011;21292;52.416;13.046;2024-02-21T11:42:26;18.13;;;6.60;;
35114;SDS011;21292;52.416;13.046;2024-02-21T11:44:56;12.00;;;6.45;;
35114;SDS011;21292;52.416;13.046;2024-02-21T11:47:24;12.20;;;5.72;;
35114;SDS011;21292;52.416;13.046;2024-02-21T11:49:56;9.02;;;6.05;;
35114;SDS011;21292;52.416;13.046;2024-02-21T11:52:24;10.15;;;6.55;;
35114;SDS011;21292;52.416;13.046;2024-02-21T11:54:55;13.45;;;6.13;;
35114;SDS011;21292;52.416;13.046;2024-02-21T11:57:34;16.17;;;6.20;;
35114;SDS011;21292;52.416;13.046;2024-02-21T12:00:15;9.48;;;5.90;;
35114;SDS011;21292;52.416;13.046;2024-02-21T12:02:44;10.65;;;6.00;;
35114;SDS011;21292;52.416;13.046;2024-02-21T12:05:13;11.73;;;6.18;;
35114;SDS011;21292;52.416;13.046;2024-02-21T12:07:42;8.70;;;5.47;;
35114;SDS011;21292;52.416;13.046;2024-02-21T12:10:13;9.40;;;5.25;;
35114;SDS011;21292;52.416;13.046;2024-02-21T12:12:41;11.70;;;5.72;;
35114;SDS011;21292;52.416;13.046;2024-02-21T12:15:10;10.32;;;5.00;;
35114;SDS011;21292;52.416;13.046;2024-02-21T12:17:40;10.13;;;4.93;;
35114;SDS011;21292;52.416;13.046;2024-02-21T12:20:09;12.45;;;5.28;;
35114;SDS011;21292;52.416;13.046;2024-02-21T12:22:39;13.52;;;5.18;;
35114;SDS011;21292;52.416;13.046;2024-02-21T12:25:15;9.73;;;5.18;;
35114;SDS011;21292;52.416;13.046;2024-02-21T12:27:45;12.13;;;6.65;;
35114;SDS011;21292;52.416;13.046;2024-02-21T12:30:16;8.00;;;4.93;;
35114;SDS011;21292;52.416;13.046;2024-02-21T12:32:46;7.95;;;4.35;;
35114;SDS011;21292;52.416;13.046;2024-02-21T12:35:17;11.57;;;5.18;;
35114;SDS011;21292;52.416;13.046;2024-02-21T12:37:47;7.85;;;5.05;;
35114;SDS011;21292;52.416;13.046;2024-02-21T12:40:17;7.43;;;5.32;;
35114;SDS011;21292;52.416;13.046;2024-02-21T12:42:46;8.60;;;4.47;;
35114;SDS011;21292;52.416;13.046;2024-02-21T12:45:18;10.30;;;5.00;;
35114;SDS011;21292;52.416;13.046;2024-02-21T12:47:48;7.70;;;4.78;;
35114;SDS011;21292;52.416;13.046;2024-02-21T12:50:17;12.15;;;5.38;;
35114;SDS011;21292;52.416;13.046;2024-02-21T12:52:46;12.55;;;5.05;;
35114;SDS011;21292;52.416;13.046;2024-02-21T12:55:16;12.48;;;5.95;;
35114;SDS011;21292;52.416;13.046;2024-02-21T12:57:48;13.17;;;5.43;;
35114;SDS011;21292;52.416;13.046;2024-02-21T13:00:25;18.35;;;5.63;;
35114;SDS011;21292;52.416;13.046;2024-02-21T13:02:59;11.73;;;4.53;;
35114;SDS011;21292;52.416;13.046;2024-02-21T13:05:34;11.18;;;5.20;;
35114;SDS011;21292;52.416;13.046;2024-02-21T13:08:24;6.43;;;4.25;;
35114;SDS011;21292;52.416;13.046;2024-02-21T13:10:54;14.82;;;4.75;;
35114;SDS011;21292;52.416;13.046;2024-02-21T13:13:27;9.23;;;4.47;;
35114;SDS011;21292;52.416;13.046;2024-02-21T13:16:00;9.52;;;4.97;;
35114;SDS011;21292;52.416;13.046;2024-02-21T13:18:34;10.52;;;5.22;;
35114;SDS011;21292;52.416;13.046;2024-02-21T13:21:16;8.57;;;4.45;;
35114;SDS011;21292;52.416;13.046;2024-02-21T13:23:52;91.03;;;13.13;;
35114;SDS011;21292;52.416;13.046;2024-02-21T13:26:22;11.30;;;4.60;;
35114;SDS011;21292;52.416;13.046;2024-02-21T13:28:51;12.82;;;4.57;;
35114;SDS011;21292;52.416;13.046;2024-02-21T13:31:21;9.82;;;4.53;;
35114;SDS011;21292;52.416;13.046;2024-02-21T13:34:00;7.18;;;4.07;;
35114;SDS011;21292;52.416;13.046;2024-02-21T13:36:30;16.58;;;4.65;;
35114;SDS011;21292;52.416;13.046;2024-02-21T13:39:03;10.10;;;4.53;;
35114;SDS011;21292;52.416;13.046;2024-02-21T13:41:39;13.20;;;5.70;;
35114;SDS011;21292;52.416;13.046;2024-02-21T13:44:13;9.93;;;3.97;;
35114;SDS011;21292;52.416;13.046;2024-02-21T13:46:42;15.45;;;4.82;;
35114;SDS011;21292;52.416;13.046;2024-02-21T13:49:15;10.65;;;3.83;;
35114;SDS011;21292;52.416;13.046;2024-02-21T13:51:43;8.45;;;3.70;;
35114;SDS011;21292;52.416;13.046;2024-02-21T13:54:12;8.00;;;4.05;;
35114;SDS011;21292;52.416;13.046;2024-02-21T13:56:45;9.32;;;3.45;;
35114;SDS011;21292;52.416;13.046;2024-02-21T13:59:15;5.47;;;3.65;;
35114;SDS011;21292;52.416;13.046;2024-02-21T14:01:45;11.38;;;4.13;;
35114;SDS011;21292;52.416;13.046;2024-02-21T14:04:15;11.27;;;3.67;;
35114;SDS011;21292;52.416;13.046;2024-02-21T14:06:46;5.97;;;3.17;;
35114;SDS011;21292;52.416;13.046;2024-02-21T14:09:22;7.28;;;3.00;;
35114;SDS011;21292;52.416;13.046;2024-02-21T14:11:54;6.47;;;3.25;;
35114;SDS011;21292;52.416;13.046;2024-02-21T14:14:22;14.27;;;3.50;;
35114;SDS011;21292;52.416;13.046;2024-02-21T14:16:51;5.80;;;3.60;;
35114;SDS011;21292;52.416;13.046;2024-02-21T14:19:21;11.70;;;4.00;;
35114;SDS011;21292;52.416;13.046;2024-02-21T14:21:50;7.18;;;3.67;;
35114;SDS011;21292;52.416;13.046;2024-02-21T14:24:20;6.85;;;3.28;;
35114;SDS011;21292;52.416;13.046;2024-02-21T14:26:51;7.50;;;3.47;;
35114;SDS011;21292;52.416;13.046;2024-02-21T14:29:19;11.07;;;3.05;;
35114;SDS011;21292;52.416;13.046;2024-02-21T14:31:48;8.68;;;3.10;;
35114;SDS011;21292;52.416;13.046;2024-02-21T14:34:16;6.28;;;3.15;;
35114;SDS011;21292;52.416;13.046;2024-02-21T14:36:46;6.85;;;2.88;;